Avon, South Dakota
Current Conditions -  °F | °C
As of 4:15 PM on Thursday 23 Oct 2014 (Local Time) from KYKN Reporting Station
Clear Clear  
Wind Chill: 22°   Ceiling: Unl
Heat Index: 22°   Visibility: 10mi
Dew Point:   Wind: 13mph
Humidity: 41%   Direction: 190°S
Pressure: 29.94"   Gusts: 16mph
Location:  43.01°N, 98.06°W
Report Text: KYKN 232115Z AUTO 19011G14KT 10SM CLR 22/08 A2994 RMK AO1
Loading
Personal Weather Stations






























Interactive Weather Map
Tropical Storm Tracking
New forecast layout! Learn more

10-Day Weather Forecast

Advertisements
Track Severe Weather on mobile